Time;durP1;ratioP1;P1;durP2;ratioP2;P2;SDS_P1;SDS_P2;PMS_P1;PMS_P2;Temp;Humidity;BMP_temperature;BMP_pressure;BME280_temperature;BME280_humidity;BME280_pressure;Samples;Min_cycle;Max_cycle;Signal;HPM_P1;HPM_P2
2022/06/29 00:02:24;;;;;;;9.38;3.50;;;;;;;17.88;69.19;101539.50;5010035;28;20029;-28
2022/06/29 00:04:50;;;;;;;5.75;3.53;;;;;;;17.87;69.28;101535.09;5009930;28;20485;-28
2022/06/29 00:07:15;;;;;;;8.23;3.67;;;;;;;17.90;68.90;101537.38;5009837;28;20088;-28
2022/06/29 00:09:40;;;;;;;9.85;3.38;;;;;;;17.85;68.81;101537.19;5009411;28;20030;-27
2022/06/29 00:12:06;;;;;;;6.85;3.60;;;;;;;17.82;68.96;101540.34;5009823;28;20075;-27
2022/06/29 00:14:31;;;;;;;9.32;3.67;;;;;;;17.77;69.34;101533.63;5009936;28;20426;-27
2022/06/29 00:16:57;;;;;;;8.27;3.35;;;;;;;17.73;69.86;101537.00;5010123;28;20101;-28
2022/06/29 00:19:22;;;;;;;7.03;3.05;;;;;;;17.69;69.92;101531.16;5009589;28;20061;-28
2022/06/29 00:21:48;;;;;;;8.55;3.20;;;;;;;17.72;69.80;101528.00;5009746;28;20092;-29
2022/06/29 00:24:13;;;;;;;9.20;3.88;;;;;;;17.75;69.35;101533.00;5009951;28;20029;-28
2022/06/29 00:26:38;;;;;;;7.35;3.08;;;;;;;17.74;69.12;101525.88;5024430;28;20060;-28
2022/06/29 00:29:04;;;;;;;7.45;2.97;;;;;;;17.70;69.34;101524.63;5009693;28;20400;-27
2022/06/29 00:31:30;;;;;;;7.60;3.03;;;;;;;17.73;69.11;101518.75;5007798;28;20127;-29
2022/06/29 00:33:55;;;;;;;5.47;3.08;;;;;;;17.71;69.10;101520.84;5009942;28;20050;-27
2022/06/29 00:36:20;;;;;;;7.05;3.47;;;;;;;17.66;69.16;101525.28;5008394;28;20064;-28
2022/06/29 00:38:46;;;;;;;10.70;3.40;;;;;;;17.58;69.73;101518.16;5010139;28;20496;-28
2022/06/29 00:41:11;;;;;;;7.20;3.08;;;;;;;17.57;69.70;101513.78;5009061;28;20026;-28
2022/06/29 00:43:41;;;;;;;8.77;3.08;;;;;;;17.58;69.11;101515.44;5008505;28;20037;-28
2022/06/29 00:46:06;;;;;;;8.65;2.92;;;;;;;17.55;69.28;101516.69;5009329;28;20018;-28
2022/06/29 00:48:32;;;;;;;4.47;2.50;;;;;;;17.48;68.61;101513.16;5008354;28;20393;-28
2022/06/29 00:50:59;;;;;;;7.90;2.33;;;;;;;17.46;68.12;101504.38;5010099;28;20087;-28
2022/06/29 00:53:25;;;;;;;;;;;;;;;17.46;67.45;101507.09;5010283;28;20049;-27
2022/06/29 00:55:52;;;;;;;6.93;2.17;;;;;;;17.51;67.10;101503.75;5007881;28;19914;-28
2022/06/29 00:58:18;;;;;;;10.35;2.25;;;;;;;17.53;66.79;101505.19;5008431;28;20030;-27
2022/06/29 01:00:44;;;;;;;10.52;2.50;;;;;;;17.55;66.17;101504.97;5008354;28;20026;-28
2022/06/29 01:03:10;;;;;;;4.68;2.00;;;;;;;17.63;66.09;101496.59;5008875;28;20100;-28
2022/06/29 01:05:35;;;;;;;3.80;2.10;;;;;;;17.56;65.65;101501.19;5012207;28;20451;-28
2022/06/29 01:08:01;;;;;;;7.53;2.17;;;;;;;17.58;66.03;101504.56;5012052;28;20434;-28
2022/06/29 01:10:27;;;;;;;5.60;2.30;;;;;;;17.59;65.94;101495.34;5013162;28;20041;-28
2022/06/29 01:12:52;;;;;;;3.83;2.10;;;;;;;17.63;65.57;101491.13;5013478;28;20022;-28
2022/06/29 01:15:19;;;;;;;5.38;1.92;;;;;;;17.62;65.62;101489.47;5013175;28;20040;-27
2022/06/29 01:17:44;;;;;;;5.13;2.30;;;;;;;17.57;66.09;101492.00;5012637;28;20041;-27
2022/06/29 01:20:11;;;;;;;8.13;2.22;;;;;;;17.52;65.92;101489.09;5013103;28;20037;-28
2022/06/29 01:22:37;;;;;;;4.78;2.00;;;;;;;17.50;66.17;101497.44;5012898;28;20057;-28
2022/06/29 01:25:03;;;;;;;3.30;2.17;;;;;;;17.44;66.20;101498.31;5012289;28;20472;-27
2022/06/29 01:27:29;;;;;;;5.00;1.90;;;;;;;17.47;66.39;101494.31;5012628;28;20039;-27
2022/06/29 01:29:55;;;;;;;4.88;2.20;;;;;;;17.43;66.72;101496.63;5012777;28;20021;-28
2022/06/29 01:32:21;;;;;;;5.68;2.38;;;;;;;17.41;66.87;101492.47;5012697;28;20469;-28
2022/06/29 01:34:46;;;;;;;7.38;2.10;;;;;;;17.35;66.89;101491.38;5010906;28;20050;-27
2022/06/29 01:37:12;;;;;;;5.72;2.50;;;;;;;17.42;66.74;101496.84;5012401;28;20022;-28
2022/06/29 01:39:37;;;;;;;4.47;2.22;;;;;;;17.37;67.14;101486.56;5012625;28;20037;-28
2022/06/29 01:42:04;;;;;;;5.53;2.50;;;;;;;17.36;67.00;101489.53;5012449;28;20381;-27
2022/06/29 01:44:30;;;;;;;5.60;2.50;;;;;;;17.28;67.58;101488.69;5012403;28;20030;-28
2022/06/29 01:46:55;;;;;;;3.97;2.53;;;;;;;17.26;67.80;101488.06;5012601;28;20033;-28
2022/06/29 01:49:22;;;;;;;5.90;2.50;;;;;;;17.25;68.01;101489.13;5012858;28;20088;-27
2022/06/29 01:51:47;;;;;;;12.98;2.10;;;;;;;17.23;68.06;101484.94;5012431;28;20504;-29
2022/06/29 01:54:12;;;;;;;3.08;2.03;;;;;;;17.22;67.95;101481.38;5011714;28;20065;-28
2022/06/29 01:56:38;;;;;;;10.25;2.55;;;;;;;17.19;68.18;101487.22;5012642;28;20309;-28
2022/06/29 01:59:03;;;;;;;7.60;2.63;;;;;;;17.11;68.27;101482.84;5012387;28;20033;-29
2022/06/29 02:01:29;;;;;;;7.03;3.30;;;;;;;17.05;68.55;101480.94;5012472;28;20100;-29
2022/06/29 02:03:54;;;;;;;4.53;2.80;;;;;;;17.04;68.83;101475.75;5011737;28;20026;-29
2022/06/29 02:06:20;;;;;;;6.10;2.58;;;;;;;17.01;68.70;101470.69;5011881;28;20029;-29
2022/06/29 02:08:46;;;;;;;7.93;2.58;;;;;;;16.95;69.02;101471.53;5012305;28;20334;-29
2022/06/29 02:11:12;;;;;;;4.72;2.88;;;;;;;16.90;69.29;101469.44;5012440;28;20026;-29
2022/06/29 02:13:37;;;;;;;5.32;2.65;;;;;;;16.83;69.54;101461.28;5012098;28;20440;-30
2022/06/29 02:16:03;;;;;;;4.05;2.80;;;;;;;16.78;69.95;101463.81;5010879;28;20021;-29
2022/06/29 02:18:28;;;;;;;7.05;2.60;;;;;;;16.79;70.02;101467.34;5010240;28;20033;-29
2022/06/29 02:20:53;;;;;;;10.25;2.65;;;;;;;16.76;70.17;101465.00;5011226;28;20124;-29
2022/06/29 02:23:20;;;;;;;5.45;2.80;;;;;;;16.72;70.65;101456.44;5010268;28;20424;-29
2022/06/29 02:25:46;;;;;;;9.98;3.08;;;;;;;16.81;70.20;101454.41;5011548;28;20105;-29
2022/06/29 02:28:11;;;;;;;8.40;3.30;;;;;;;16.79;70.14;101457.31;5010699;28;20262;-29
2022/06/29 02:36:10;;;;;;;10.23;2.95;;;;;;;16.70;70.31;101450.38;5011549;28;20073;-28
2022/06/29 02:38:35;;;;;;;11.65;3.63;;;;;;;16.68;70.65;101444.31;5009335;28;20069;-29
2022/06/29 02:41:00;;;;;;;6.75;3.67;;;;;;;16.68;70.85;101449.75;5011994;28;20409;-30
2022/06/29 02:43:26;;;;;;;5.50;3.40;;;;;;;16.62;71.01;101445.16;5012159;28;20026;-29
2022/06/29 02:45:52;;;;;;;7.07;3.45;;;;;;;16.59;70.89;101440.13;5010769;28;20029;-29
2022/06/29 02:48:17;;;;;;;5.13;3.40;;;;;;;16.58;71.10;101435.72;5010095;28;20030;-28
2022/06/29 02:50:43;;;;;;;9.00;3.30;;;;;;;16.62;71.18;101440.53;5010941;28;20057;-29
2022/06/29 02:53:08;;;;;;;8.70;3.28;;;;;;;16.58;71.08;101439.28;5011660;28;20436;-29
2022/06/29 02:55:34;;;;;;;3.97;3.30;;;;;;;16.52;71.32;101433.84;5012140;28;20025;-29
2022/06/29 02:57:59;;;;;;;8.18;3.60;;;;;;;16.53;71.47;101432.78;5011987;28;20029;-29
2022/06/29 03:00:24;;;;;;;6.22;3.25;;;;;;;16.54;71.45;101432.59;5012267;28;20030;-30
2022/06/29 03:02:50;;;;;;;10.30;3.78;;;;;;;16.48;71.63;101432.56;5012076;28;20109;-29
2022/06/29 03:05:15;;;;;;;9.82;3.92;;;;;;;16.46;71.88;101425.47;5011947;28;20038;-29
2022/06/29 03:07:40;;;;;;;7.57;3.60;;;;;;;16.46;71.91;101420.03;5011717;28;20044;-29
2022/06/29 03:10:06;;;;;;;11.00;3.50;;;;;;;16.47;72.01;101426.31;5012054;28;20595;-29
2022/06/29 03:12:31;;;;;;;8.88;4.07;;;;;;;16.49;71.82;101423.41;5012190;28;20033;-28
2022/06/29 03:14:57;;;;;;;9.00;3.40;;;;;;;16.48;71.82;101421.69;5011852;28;20105;-29
2022/06/29 03:17:22;;;;;;;20.65;4.80;;;;;;;16.41;71.99;101417.09;5012218;28;20068;-30
2022/06/29 03:19:47;;;;;;;8.25;4.07;;;;;;;16.38;72.46;101417.53;5011633;28;20470;-30
2022/06/29 03:22:13;;;;;;;11.73;4.07;;;;;;;16.32;72.42;101412.91;5012087;28;20039;-30
2022/06/29 03:24:39;;;;;;;8.88;3.97;;;;;;;16.33;72.44;101406.44;5012113;28;20045;-31
2022/06/29 03:27:04;;;;;;;7.30;3.83;;;;;;;16.35;72.47;101408.94;5011890;28;20477;-28
2022/06/29 03:29:30;;;;;;;11.63;3.97;;;;;;;16.30;72.48;101404.13;5011532;28;20373;-29
2022/06/29 03:31:55;;;;;;;6.43;4.30;;;;;;;16.27;72.56;101399.09;5027016;28;20426;-28
2022/06/29 03:34:21;;;;;;;10.55;4.10;;;;;;;16.24;72.69;101410.38;5011108;28;20049;-27
2022/06/29 03:36:46;;;;;;;9.88;4.20;;;;;;;16.22;73.18;101404.34;5011515;28;20115;-29
2022/06/29 03:39:11;;;;;;;10.95;4.22;;;;;;;16.15;73.23;101407.03;5011281;28;20037;-28
2022/06/29 03:41:37;;;;;;;8.43;4.10;;;;;;;16.11;73.45;101407.63;5011069;28;20030;-28
2022/06/29 03:44:03;;;;;;;12.85;4.30;;;;;;;16.09;74.15;101407.00;5008965;28;20026;-29
2022/06/29 03:46:28;;;;;;;8.48;4.55;;;;;;;16.16;73.86;101402.41;5008081;28;20121;-29
2022/06/29 03:48:54;;;;;;;13.65;4.50;;;;;;;16.16;73.65;101402.41;5009374;28;20072;-29
2022/06/29 03:51:19;;;;;;;7.43;4.18;;;;;;;16.18;73.84;101401.19;5009317;28;20041;-30
2022/06/29 03:53:44;;;;;;;8.10;4.90;;;;;;;16.21;73.78;101402.63;5009421;28;20030;-26
2022/06/29 03:56:10;;;;;;;10.15;4.55;;;;;;;16.16;74.08;101402.41;5009461;28;20022;-27
2022/06/29 03:58:35;;;;;;;8.30;4.00;;;;;;;16.18;74.32;101400.34;5008012;28;20049;-30
2022/06/29 04:01:00;;;;;;;7.63;4.65;;;;;;;16.20;74.18;101401.81;5008957;28;20023;-27
2022/06/29 04:03:26;;;;;;;6.03;4.10;;;;;;;16.19;74.29;101399.28;5005049;28;20050;-29
2022/06/29 04:05:51;;;;;;;9.15;4.45;;;;;;;16.29;73.99;101401.63;5009824;28;20061;-28
2022/06/29 04:08:17;;;;;;;8.73;4.88;;;;;;;16.38;73.71;101397.69;5006274;28;20038;-27
2022/06/29 04:10:42;;;;;;;9.68;4.53;;;;;;;16.39;73.71;101397.44;5003161;28;20026;-28
2022/06/29 04:13:08;;;;;;;7.78;4.53;;;;;;;16.42;73.52;101401.63;5008601;28;20088;-29
2022/06/29 04:15:34;;;;;;;9.82;5.20;;;;;;;16.45;73.48;101401.22;5009217;28;20032;-28
2022/06/29 04:17:59;;;;;;;10.15;5.88;;;;;;;16.51;73.05;101389.53;5005097;28;20088;-30
2022/06/29 04:23:09;;;;;;;11.27;4.93;;;;;;;16.58;72.99;101400.41;4998695;28;20096;-29
2022/06/29 04:25:34;;;;;;;9.40;5.32;;;;;;;16.61;72.73;101400.84;5004433;28;20548;-29
2022/06/29 04:28:00;;;;;;;10.98;5.40;;;;;;;16.69;72.65;101397.06;5006035;28;20022;-30
2022/06/29 04:30:25;;;;;;;8.75;4.80;;;;;;;16.77;72.58;101394.19;5008317;28;20029;-29
2022/06/29 04:32:50;;;;;;;9.38;5.65;;;;;;;16.81;72.30;101395.41;5008457;28;20034;-29
2022/06/29 04:35:16;;;;;;;8.27;4.75;;;;;;;16.87;72.03;101388.31;5009727;28;20041;-30
2022/06/29 04:37:41;;;;;;;13.88;5.80;;;;;;;16.89;71.90;101389.75;5009848;28;20096;-29
2022/06/29 04:40:07;;;;;;;7.50;5.15;;;;;;;16.94;71.51;101388.31;5012945;28;20052;-29
2022/06/29 04:42:32;;;;;;;14.60;5.38;;;;;;;17.05;71.10;101372.16;5005343;28;20044;-29
2022/06/29 04:44:58;;;;;;;8.75;4.72;;;;;;;17.19;71.09;101378.41;5014856;28;20036;-30
2022/06/29 04:47:23;;;;;;;10.77;5.35;;;;;;;17.29;70.74;101377.97;5014090;28;20116;-29
2022/06/29 04:49:48;;;;;;;10.70;5.25;;;;;;;17.26;69.68;101371.09;5014121;28;20068;-29
2022/06/29 04:52:14;;;;;;;8.65;5.00;;;;;;;17.36;70.31;101369.81;5013524;28;20107;-29
2022/06/29 04:54:39;;;;;;;11.02;5.10;;;;;;;17.48;70.24;101368.06;5010131;28;20088;-29
2022/06/29 04:57:06;;;;;;;7.55;5.55;;;;;;;17.44;69.49;101366.84;5013993;28;20022;-29
2022/06/29 04:59:32;;;;;;;9.63;5.00;;;;;;;17.54;69.45;101361.78;5014102;28;20040;-29
2022/06/29 05:01:58;;;;;;;9.23;5.78;;;;;;;17.60;69.28;101366.38;5012526;28;20022;-29
2022/06/29 05:04:23;;;;;;;8.45;5.95;;;;;;;17.74;68.87;101364.41;5013135;28;20125;-29
2022/06/29 05:06:48;;;;;;;8.32;5.35;;;;;;;17.80;68.83;101363.59;5013864;28;20053;-29
2022/06/29 05:09:14;;;;;;;8.77;5.63;;;;;;;17.80;68.03;101363.59;5012331;28;20507;-30
2022/06/29 05:11:39;;;;;;;8.05;5.40;;;;;;;17.82;68.28;101363.38;5012616;28;20022;-29
2022/06/29 05:14:05;;;;;;;11.98;5.65;;;;;;;17.86;68.28;101354.56;5011167;28;20160;-28
2022/06/29 05:16:30;;;;;;;11.48;5.75;;;;;;;17.67;68.29;101359.00;5012237;28;20088;-29
2022/06/29 05:18:55;;;;;;;16.95;5.75;;;;;;;17.67;68.64;101359.00;5013046;28;20042;-30
2022/06/29 05:21:21;;;;;;;9.35;5.97;;;;;;;17.52;68.76;101348.41;4995763;28;20041;-29
2022/06/29 05:23:47;;;;;;;9.95;5.90;;;;;;;17.54;69.29;101353.63;5013669;28;20022;-29
2022/06/29 05:26:12;;;;;;;9.82;5.93;;;;;;;17.61;69.27;101351.69;5003312;28;20042;-29
2022/06/29 05:28:38;;;;;;;11.00;5.55;;;;;;;17.69;69.19;101356.91;5004029;28;20464;-30
2022/06/29 05:31:03;;;;;;;6.90;5.57;;;;;;;17.70;68.90;101357.75;5013004;28;20026;-29
2022/06/29 05:33:36;;;;;;;13.57;6.13;;;;;;;17.85;68.83;101346.59;5010513;28;20022;-29
2022/06/29 05:36:05;;;;;;;10.70;6.60;;;;;;;18.05;69.01;101352.75;5004489;28;20027;-28
2022/06/29 05:38:32;;;;;;;9.68;5.47;;;;;;;18.21;68.58;101345.94;5013012;28;20033;-29
2022/06/29 05:40:57;;;;;;;10.00;5.88;;;;;;;18.36;68.16;101337.47;5011768;28;20038;-29
2022/06/29 05:43:22;;;;;;;16.15;7.38;;;;;;;18.43;66.98;101332.78;5027752;28;20231;-29
2022/06/29 05:45:48;;;;;;;13.02;6.55;;;;;;;18.46;67.25;101332.34;5013249;28;20100;-30
2022/06/29 05:48:13;;;;;;;9.98;6.28;;;;;;;18.50;66.69;101336.28;5011213;28;20030;-28
2022/06/29 05:50:39;;;;;;;8.88;5.72;;;;;;;18.57;66.28;101331.63;5010312;28;20668;-29
2022/06/29 05:53:04;;;;;;;6.78;5.82;;;;;;;18.71;66.05;101323.31;5012278;28;20036;-29
2022/06/29 05:55:29;;;;;;;12.45;6.28;;;;;;;18.80;66.10;101333.75;5013180;28;20049;-28
2022/06/29 05:57:55;;;;;;;18.25;6.03;;;;;;;18.83;65.91;101329.75;5012473;28;20188;-29
2022/06/29 06:00:20;;;;;;;8.30;6.30;;;;;;;18.91;65.48;101339.53;5013079;28;20034;-29
2022/06/29 06:02:46;;;;;;;10.23;6.13;;;;;;;19.03;65.83;101326.81;5013054;28;20397;-30
2022/06/29 06:05:11;;;;;;;11.15;5.80;;;;;;;19.10;64.90;101326.75;5011651;28;20018;-29
2022/06/29 06:07:36;;;;;;;10.05;5.90;;;;;;;19.05;64.50;101328.25;5011661;28;20045;-29
2022/06/29 06:10:03;;;;;;;17.25;6.55;;;;;;;19.12;64.79;101335.53;5012597;28;20405;-30
2022/06/29 06:12:28;;;;;;;8.02;5.57;;;;;;;19.26;65.17;101337.06;5011026;28;20116;-29
2022/06/29 06:14:57;;;;;;;8.07;5.95;;;;;;;19.24;64.11;101326.34;5011939;28;20161;-28
2022/06/29 06:17:26;;;;;;;9.73;5.90;;;;;;;19.42;64.15;101327.41;5009838;28;20377;-30
2022/06/29 06:19:51;;;;;;;10.35;6.07;;;;;;;19.51;64.34;101335.06;5010406;28;20037;-30
2022/06/29 06:22:17;;;;;;;12.13;5.72;;;;;;;19.66;64.17;101328.38;5010807;28;20457;-30
2022/06/29 06:24:42;;;;;;;14.25;5.85;;;;;;;19.97;63.51;101326.50;5010931;28;20542;-28
2022/06/29 06:27:08;;;;;;;8.70;5.70;;;;;;;20.17;62.76;101327.03;5012048;28;20037;-30
2022/06/29 06:29:33;;;;;;;6.75;5.90;;;;;;;20.44;61.78;101335.66;5012486;28;20026;-29
2022/06/29 06:32:01;;;;;;;10.77;6.03;;;;;;;20.80;61.41;101337.38;5012205;28;20108;-30
2022/06/29 06:34:26;;;;;;;14.85;5.72;;;;;;;21.03;59.28;101330.22;5010891;28;20098;-28
2022/06/29 06:36:51;;;;;;;12.25;5.40;;;;;;;21.01;58.37;101321.41;5012358;28;20444;-28
2022/06/29 06:39:17;;;;;;;12.65;5.05;;;;;;;21.21;58.28;101330.06;5011497;28;20104;-29
2022/06/29 06:41:42;;;;;;;10.82;5.15;;;;;;;21.30;58.23;101329.69;5010413;28;20485;-29
2022/06/29 06:44:07;;;;;;;10.35;5.10;;;;;;;21.38;58.54;101337.56;4991537;28;20033;-29
2022/06/29 06:46:34;;;;;;;12.57;5.20;;;;;;;21.26;57.39;101327.44;5004029;28;20101;-29
2022/06/29 06:48:59;;;;;;;9.63;5.18;;;;;;;21.44;58.78;101326.47;5010959;28;20026;-29
2022/06/29 06:51:24;;;;;;;12.27;5.32;;;;;;;21.50;57.73;101321.94;5011241;28;20516;-30
2022/06/29 06:53:51;;;;;;;8.10;4.97;;;;;;;21.66;58.11;101329.38;5011619;28;20123;-30
2022/06/29 06:56:16;;;;;;;17.27;5.03;;;;;;;21.81;57.27;101330.75;5011225;28;20037;-29
2022/06/29 06:58:42;;;;;;;9.63;4.85;;;;;;;21.68;56.73;101329.13;5010045;28;20029;-28
2022/06/29 07:01:09;;;;;;;15.05;4.72;;;;;;;21.71;57.76;101328.66;5009080;28;20026;-27
2022/06/29 07:03:36;;;;;;;10.10;5.05;;;;;;;22.05;55.74;101326.81;5006934;28;20049;-28
2022/06/29 07:06:04;;;;;;;8.00;4.47;;;;;;;22.63;54.11;101324.78;5011797;28;20133;-28
2022/06/29 07:08:31;;;;;;;10.00;4.60;;;;;;;23.30;53.02;101329.34;5007151;28;20033;-29
2022/06/29 07:10:57;;;;;;;14.23;5.15;;;;;;;24.30;50.08;101329.91;5010067;28;20019;-28
2022/06/29 07:13:22;;;;;;;7.35;4.35;;;;;;;25.09;48.87;101325.53;5004314;28;20049;-30
2022/06/29 07:15:48;;;;;;;12.98;4.10;;;;;;;25.44;47.16;101326.81;5009195;28;20434;-28
2022/06/29 07:18:13;;;;;;;6.15;3.35;;;;;;;26.26;46.29;101319.53;5006362;28;20066;-30
2022/06/29 07:20:38;;;;;;;7.45;3.47;;;;;;;26.88;44.35;101323.09;5008003;28;20435;-31
2022/06/29 07:23:04;;;;;;;8.50;3.75;;;;;;;27.21;42.46;101331.88;5010439;28;20068;-29
2022/06/29 07:25:29;;;;;;;8.32;3.47;;;;;;;27.79;42.60;101325.78;5011073;28;20030;-30
2022/06/29 07:27:54;;;;;;;11.23;3.85;;;;;;;27.77;41.52;101322.47;5010437;28;20113;-30
2022/06/29 07:30:20;;;;;;;6.90;3.40;;;;;;;28.56;41.18;101325.25;5010768;28;20429;-29
2022/06/29 07:32:45;;;;;;;7.57;3.42;;;;;;;28.83;38.40;101321.91;5011115;28;20045;-31
2022/06/29 07:35:11;;;;;;;8.07;3.38;;;;;;;28.99;39.16;101319.81;5010004;28;20046;-31
2022/06/29 07:37:36;;;;;;;5.85;2.90;;;;;;;30.14;37.81;101323.28;5009370;28;20069;-30
2022/06/29 07:40:02;;;;;;;10.23;3.80;;;;;;;29.86;36.98;101322.34;5009964;28;20028;-31
2022/06/29 07:42:27;;;;;;;8.80;3.27;;;;;;;29.72;36.46;101322.25;5009147;28;20032;-30
2022/06/29 07:44:52;;;;;;;8.17;3.30;;;;;;;30.28;36.79;101312.28;5008277;28;20022;-29
2022/06/29 07:47:18;;;;;;;8.27;2.97;;;;;;;31.14;33.72;101328.47;5007099;28;20119;-30
2022/06/29 07:49:43;;;;;;;8.23;3.20;;;;;;;30.30;34.67;101315.53;4996178;28;20060;-31
2022/06/29 07:52:08;;;;;;;11.77;3.77;;;;;;;28.94;36.81;101311.53;5004931;28;20530;-30
2022/06/29 07:54:34;;;;;;;11.27;2.90;;;;;;;28.87;37.77;101309.16;5010100;28;20515;-30
2022/06/29 07:56:59;;;;;;;7.97;3.17;;;;;;;28.81;37.86;101313.09;4998026;28;20037;-30
2022/06/29 07:59:25;;;;;;;7.38;2.88;;;;;;;29.66;36.03;101311.53;5003466;28;20022;-30
2022/06/29 08:01:50;;;;;;;6.40;2.93;;;;;;;30.32;34.64;101313.28;5010395;28;20026;-31
2022/06/29 08:04:15;;;;;;;7.30;2.80;;;;;;;29.28;35.48;101309.53;5010417;28;20034;-30
2022/06/29 08:06:41;;;;;;;11.70;3.17;;;;;;;29.35;36.39;101314.69;5010586;28;20030;-31
2022/06/29 08:09:06;;;;;;;7.03;2.40;;;;;;;29.82;35.26;101314.91;5009598;28;20088;-30
2022/06/29 08:11:32;;;;;;;7.10;2.67;;;;;;;30.40;34.59;101317.34;5010605;28;20029;-31
2022/06/29 08:13:57;;;;;;;14.57;2.60;;;;;;;29.99;33.56;101320.75;5009458;28;20473;-30
2022/06/29 08:16:23;;;;;;;4.97;2.00;;;;;;;30.49;34.91;101317.44;5009498;28;20034;-29
2022/06/29 08:18:48;;;;;;;8.23;2.27;;;;;;;31.47;32.48;101304.16;5007289;28;20441;-30
2022/06/29 08:21:13;;;;;;;14.33;2.63;;;;;;;31.59;31.43;101314.72;5009663;28;20410;-30
2022/06/29 08:23:39;;;;;;;7.37;2.40;;;;;;;30.89;32.62;101303.97;5009682;28;20060;-28
2022/06/29 08:26:04;;;;;;;5.13;2.30;;;;;;;30.71;34.37;101303.72;5025012;28;20555;-28
2022/06/29 08:28:30;;;;;;;4.37;2.40;;;;;;;30.45;34.12;101316.44;5008877;28;20125;-29
2022/06/29 08:30:55;;;;;;;7.27;2.13;;;;;;;30.67;32.82;101311.00;5009055;28;20053;-30
2022/06/29 08:33:23;;;;;;;6.37;1.67;;;;;;;31.36;32.42;101316.63;5010237;28;20033;-29
2022/06/29 08:35:49;;;;;;;5.55;2.22;;;;;;;31.00;31.75;101313.75;5009431;28;20041;-30
2022/06/29 08:38:15;;;;;;;13.47;2.87;;;;;;;30.09;34.17;101311.44;5010145;28;20046;-29
2022/06/29 08:40:49;;;;;;;4.72;1.95;;;;;;;30.11;33.28;101315.56;5010243;28;20277;-30
2022/06/29 08:43:16;;;;;;;8.95;2.30;;;;;;;29.75;33.98;101302.25;5010670;28;20488;-28
2022/06/29 08:45:43;;;;;;;5.78;2.03;;;;;;;29.70;34.58;101307.03;5009511;28;20116;-30
2022/06/29 08:48:10;;;;;;;4.55;2.13;;;;;;;29.88;33.95;101303.41;5002818;28;20022;-30
2022/06/29 08:50:37;;;;;;;6.10;2.30;;;;;;;30.57;33.16;101314.81;4990576;28;20423;-27
2022/06/29 08:53:05;;;;;;;7.78;2.47;;;;;;;30.31;32.96;101300.56;4991135;28;20079;-29
2022/06/29 08:55:31;;;;;;;5.60;2.20;;;;;;;30.10;33.07;101310.31;5009690;28;20433;-27
2022/06/29 08:57:58;;;;;;;8.00;2.37;;;;;;;30.20;32.96;101299.03;5009305;28;20038;-29
2022/06/29 09:00:24;;;;;;;11.55;2.47;;;;;;;30.00;34.16;101302.16;5006482;28;20397;-30
2022/06/29 09:02:50;;;;;;;5.97;2.50;;;;;;;30.29;33.09;101299.22;4990366;28;20023;-28
2022/06/29 09:05:15;;;;;;;11.53;2.13;;;;;;;29.77;33.96;101295.56;5001773;28;20029;-28
2022/06/29 09:07:40;;;;;;;6.70;1.93;;;;;;;30.09;32.81;101289.22;5009690;28;20386;-29
2022/06/29 09:10:11;;;;;;;10.67;2.53;;;;;;;30.20;32.88;101287.91;5009616;28;20085;-29
2022/06/29 09:12:37;;;;;;;6.80;1.83;;;;;;;30.51;32.96;101292.97;5009873;28;20026;-29
2022/06/29 09:15:07;;;;;;;6.00;2.07;;;;;;;30.65;32.18;101285.50;5009127;28;20393;-29
2022/06/29 09:17:34;;;;;;;12.80;2.03;;;;;;;29.79;33.90;101296.09;5010076;28;20117;-29
2022/06/29 09:20:00;;;;;;;8.30;2.00;;;;;;;29.68;34.42;101287.94;5007664;28;20041;-29
2022/06/29 09:22:25;;;;;;;7.30;2.00;;;;;;;30.53;32.35;101291.53;5008825;28;20316;-30
2022/06/29 09:24:51;;;;;;;3.72;1.65;;;;;;;29.67;33.58;101289.03;5009880;28;20040;-29
2022/06/29 09:27:16;;;;;;;4.93;1.90;;;;;;;29.73;33.45;101292.59;5013364;28;20036;-30
2022/06/29 09:29:42;;;;;;;5.93;1.95;;;;;;;30.09;33.23;101292.00;4998569;28;20373;-28
2022/06/29 09:32:08;;;;;;;5.68;2.30;;;;;;;30.06;32.45;101287.06;5012361;28;20037;-30
2022/06/29 09:34:44;;;;;;;4.18;1.77;;;;;;;30.24;32.89;101289.00;5011430;28;20061;-29
2022/06/29 09:37:14;;;;;;;8.32;2.00;;;;;;;30.19;31.75;101286.28;5013178;28;20054;-30
2022/06/29 09:39:41;;;;;;;4.97;1.70;;;;;;;30.35;31.74;101296.03;5012821;28;20037;-29
2022/06/29 09:42:10;;;;;;;8.80;2.13;;;;;;;30.08;31.68;101295.91;5011519;28;20026;-28
2022/06/29 09:44:36;;;;;;;8.35;1.80;;;;;;;29.90;32.68;101289.25;5011874;28;20038;-29
2022/06/29 09:47:16;;;;;;;3.40;1.67;;;;;;;30.69;32.69;101283.75;5008507;28;20567;-29
2022/06/29 09:50:08;;;;;;;8.65;1.77;;;;;;;31.53;30.84;101282.63;5005439;28;20032;-30
2022/06/29 09:52:35;;;;;;;6.38;1.75;;;;;;;31.49;30.48;101289.91;4989959;28;20049;-28
2022/06/29 09:55:00;;;;;;;;;;;;;;;31.24;30.30;101300.44;5006632;28;20048;-28
2022/06/29 09:57:30;;;;;;;10.97;1.80;;;;;;;30.73;32.21;101295.06;5010324;28;20432;-29
2022/06/29 10:02:51;;;;;;;5.40;1.88;;;;;;;30.55;31.15;101299.59;5011152;28;20088;-29
2022/06/29 10:05:54;;;;;;;8.23;1.70;;;;;;;30.72;30.76;101287.84;5011576;28;20034;-29
2022/06/29 10:08:13;;;;;;;5.75;1.80;;;;;;;31.44;30.42;101298.41;5011508;28;20042;-28
2022/06/29 10:10:39;;;;;;;7.00;2.10;;;;;;;30.59;31.24;101289.50;5011570;28;20122;-30
2022/06/29 10:15:51;;;;;;;6.18;1.60;;;;;;;30.73;30.09;101290.34;5012800;28;20048;-29
2022/06/29 10:18:44;;;;;;;3.88;1.75;;;;;;;31.18;30.99;101286.97;5012248;28;20053;-30
2022/06/29 10:21:23;;;;;;;9.30;2.30;;;;;;;31.13;31.26;101282.34;5012868;28;20041;-30
2022/06/29 10:23:53;;;;;;;9.30;2.30;;;;;;;30.87;31.88;101278.44;5013071;28;20380;-31
2022/06/29 10:26:31;;;;;;;7.35;2.30;;;;;;;30.59;32.13;101275.59;5011027;28;20149;-29
2022/06/29 10:29:05;;;;;;;5.15;1.73;;;;;;;31.13;31.27;101279.56;5011697;28;20040;-29
2022/06/29 10:31:51;;;;;;;6.90;1.83;;;;;;;30.96;30.48;101282.13;5012374;28;20025;-29
2022/06/29 10:34:32;;;;;;;7.80;2.33;;;;;;;31.61;30.27;101276.28;5012105;28;20050;-29
2022/06/29 10:37:04;;;;;;;6.53;2.00;;;;;;;30.90;30.12;101275.84;5011720;28;20038;-31
2022/06/29 10:39:38;;;;;;;11.07;2.00;;;;;;;31.24;29.96;101283.75;5011611;28;20034;-31
2022/06/29 10:44:54;;;;;;;3.03;1.83;;;;;;;30.96;30.57;101271.84;4992542;28;20092;-28
2022/06/29 10:47:23;;;;;;;13.55;2.40;;;;;;;31.73;30.75;101272.97;4988216;28;20034;-31
2022/06/29 10:49:48;;;;;;;6.55;1.80;;;;;;;32.29;29.58;101268.00;4999191;28;20076;-31
2022/06/29 10:52:16;;;;;;;11.70;1.93;;;;;;;32.64;28.79;101266.22;5000365;28;20379;-30
2022/06/29 10:54:41;;;;;;;7.75;2.10;;;;;;;32.98;28.60;101262.75;5003278;28;20034;-30
2022/06/29 10:57:07;;;;;;;3.80;1.63;;;;;;;32.80;27.26;101269.41;5012016;28;20026;-29
2022/06/29 10:59:33;;;;;;;7.33;1.70;;;;;;;31.69;27.96;101267.19;5011293;28;20108;-31
2022/06/29 11:02:15;;;;;;;6.57;2.08;;;;;;;31.54;28.16;101266.72;5011310;28;20026;-29
2022/06/29 11:04:41;;;;;;;3.75;1.65;;;;;;;31.69;28.05;101266.38;5010137;28;20025;-30
2022/06/29 11:12:48;;;;;;;6.75;2.03;;;;;;;31.55;28.06;101269.22;5010790;28;20084;-29
2022/06/29 11:17:57;;;;;;;5.47;1.33;;;;;;;33.00;26.03;101274.41;5022135;28;20464;-29
2022/06/29 11:20:22;;;;;;;18.23;1.90;;;;;;;32.87;26.89;101277.31;5001941;28;20102;-30
2022/06/29 11:22:51;;;;;;;5.87;1.80;;;;;;;31.66;27.62;101267.00;4999144;28;20737;-32
2022/06/29 11:25:17;;;;;;;7.85;1.85;;;;;;;30.26;29.26;101280.38;5011154;28;20041;-30
2022/06/29 11:27:42;;;;;;;7.07;1.60;;;;;;;30.25;29.58;101273.97;5010029;28;20030;-30
2022/06/29 11:30:10;;;;;;;7.18;1.95;;;;;;;30.39;29.77;101272.09;4998857;28;20030;-29
2022/06/29 11:32:44;;;;;;;7.28;1.75;;;;;;;30.37;29.68;101274.34;5010453;28;20061;-30
2022/06/29 11:35:11;;;;;;;3.50;1.77;;;;;;;29.65;30.07;101274.66;5011155;28;20180;-30
2022/06/29 11:37:37;;;;;;;4.10;1.60;;;;;;;30.11;30.11;101273.91;5010740;28;20085;-30
2022/06/29 11:40:03;;;;;;;6.07;1.77;;;;;;;30.07;30.41;101277.59;5011078;28;20417;-29
2022/06/29 11:45:17;;;;;;;8.20;2.40;;;;;;;30.31;33.35;101267.22;4997287;28;20433;-31
2022/06/29 11:47:53;;;;;;;10.60;3.15;;;;;;;30.67;34.49;101266.56;5010574;28;20084;-29
2022/06/29 11:50:19;;;;;;;4.67;2.03;;;;;;;31.06;32.81;101265.25;5009011;28;20072;-29